sensor_id;sensor_type;location;lat;lon;timestamp;temperature;humidity
40696;DHT22;40425;51.102;17.208;2022-12-18T00:03:58;-3.20;99.90
40696;DHT22;40425;51.102;17.208;2022-12-18T00:09:00;-3.10;99.90
40696;DHT22;40425;51.102;17.208;2022-12-18T00:14:01;-3.20;99.90
40696;DHT22;40425;51.102;17.208;2022-12-18T00:19:03;-3.20;99.90
40696;DHT22;40425;51.102;17.208;2022-12-18T00:24:05;-3.30;99.90
40696;DHT22;40425;51.102;17.208;2022-12-18T00:29:09;-3.30;99.90
40696;DHT22;40425;51.102;17.208;2022-12-18T00:34:12;-3.40;99.90
40696;DHT22;40425;51.102;17.208;2022-12-18T00:39:13;-3.40;99.90
40696;DHT22;40425;51.102;17.208;2022-12-18T00:44:16;-3.50;99.90
40696;DHT22;40425;51.102;17.208;2022-12-18T00:49:18;-3.60;99.90
40696;DHT22;40425;51.102;17.208;2022-12-18T00:54:19;-3.50;99.90
40696;DHT22;40425;51.102;17.208;2022-12-18T00:59:20;-3.50;99.90
40696;DHT22;40425;51.102;17.208;2022-12-18T01:04:21;-3.40;99.90
40696;DHT22;40425;51.102;17.208;2022-12-18T01:09:22;-3.40;99.90
40696;DHT22;40425;51.102;17.208;2022-12-18T01:14:23;-3.20;99.90
40696;DHT22;40425;51.102;17.208;2022-12-18T01:19:24;-3.30;99.90
40696;DHT22;40425;51.102;17.208;2022-12-18T01:24:25;-3.30;99.90
40696;DHT22;40425;51.102;17.208;2022-12-18T01:29:25;-3.50;99.90
40696;DHT22;40425;51.102;17.208;2022-12-18T01:34:26;-3.50;99.90
40696;DHT22;40425;51.102;17.208;2022-12-18T01:39:27;-3.30;99.90
40696;DHT22;40425;51.102;17.208;2022-12-18T01:55:26;-3.20;99.90
40696;DHT22;40425;51.102;17.208;2022-12-18T02:00:28;-3.20;99.90
40696;DHT22;40425;51.102;17.208;2022-12-18T02:16:19;-3.30;99.90
40696;DHT22;40425;51.102;17.208;2022-12-18T02:21:40;-3.10;99.90
40696;DHT22;40425;51.102;17.208;2022-12-18T02:26:59;-3.00;99.90
40696;DHT22;40425;51.102;17.208;2022-12-18T02:32:04;-2.80;99.90
40696;DHT22;40425;51.102;17.208;2022-12-18T02:37:10;-2.80;99.90
40696;DHT22;40425;51.102;17.208;2022-12-18T02:42:12;-2.90;99.90
40696;DHT22;40425;51.102;17.208;2022-12-18T02:47:15;-2.90;99.90
40696;DHT22;40425;51.102;17.208;2022-12-18T03:08:08;-2.70;99.90
40696;DHT22;40425;51.102;17.208;2022-12-18T03:13:16;-2.40;99.90
40696;DHT22;40425;51.102;17.208;2022-12-18T03:18:24;-2.10;99.90
40696;DHT22;40425;51.102;17.208;2022-12-18T03:23:30;-2.00;99.90
40696;DHT22;40425;51.102;17.208;2022-12-18T03:28:35;-2.00;99.90
40696;DHT22;40425;51.102;17.208;2022-12-18T03:34:13;-1.80;99.90
40696;DHT22;40425;51.102;17.208;2022-12-18T03:39:15;-1.90;99.90
40696;DHT22;40425;51.102;17.208;2022-12-18T03:44:35;-1.90;99.90
40696;DHT22;40425;51.102;17.208;2022-12-18T03:49:50;-1.90;99.90
40696;DHT22;40425;51.102;17.208;2022-12-18T03:54:55;-1.90;99.90
40696;DHT22;40425;51.102;17.208;2022-12-18T04:00:02;-1.90;99.90
40696;DHT22;40425;51.102;17.208;2022-12-18T04:05:06;-1.70;99.90
40696;DHT22;40425;51.102;17.208;2022-12-18T04:10:11;-1.70;99.90
40696;DHT22;40425;51.102;17.208;2022-12-18T04:15:12;-1.70;99.90
40696;DHT22;40425;51.102;17.208;2022-12-18T04:20:13;-1.90;99.90
40696;DHT22;40425;51.102;17.208;2022-12-18T04:25:15;-2.00;99.90
40696;DHT22;40425;51.102;17.208;2022-12-18T04:30:15;-2.00;99.90
40696;DHT22;40425;51.102;17.208;2022-12-18T04:35:16;-2.00;99.90
40696;DHT22;40425;51.102;17.208;2022-12-18T04:40:17;-1.90;99.90
40696;DHT22;40425;51.102;17.208;2022-12-18T04:45:18;-2.10;99.90
40696;DHT22;40425;51.102;17.208;2022-12-18T04:50:19;-2.10;99.90
40696;DHT22;40425;51.102;17.208;2022-12-18T04:55:20;-1.90;99.90
40696;DHT22;40425;51.102;17.208;2022-12-18T05:00:21;-1.90;99.90
40696;DHT22;40425;51.102;17.208;2022-12-18T05:05:22;-1.90;99.90
40696;DHT22;40425;51.102;17.208;2022-12-18T05:10:23;-1.80;99.90
40696;DHT22;40425;51.102;17.208;2022-12-18T05:15:30;-1.90;99.90
40696;DHT22;40425;51.102;17.208;2022-12-18T05:20:31;-1.80;99.90
40696;DHT22;40425;51.102;17.208;2022-12-18T05:25:32;-1.90;99.90
40696;DHT22;40425;51.102;17.208;2022-12-18T05:30:33;-1.80;99.90
40696;DHT22;40425;51.102;17.208;2022-12-18T05:35:34;-1.80;99.90
40696;DHT22;40425;51.102;17.208;2022-12-18T05:40:35;-1.80;99.90
40696;DHT22;40425;51.102;17.208;2022-12-18T05:45:38;-1.80;99.90
40696;DHT22;40425;51.102;17.208;2022-12-18T05:50:40;-1.90;99.90
40696;DHT22;40425;51.102;17.208;2022-12-18T05:55:42;-1.90;99.90
40696;DHT22;40425;51.102;17.208;2022-12-18T06:00:45;-1.80;99.90
40696;DHT22;40425;51.102;17.208;2022-12-18T06:05:46;-1.90;99.90
40696;DHT22;40425;51.102;17.208;2022-12-18T06:10:50;-1.90;99.90
40696;DHT22;40425;51.102;17.208;2022-12-18T06:15:52;-2.00;99.90
40696;DHT22;40425;51.102;17.208;2022-12-18T06:20:57;-2.30;99.90
40696;DHT22;40425;51.102;17.208;2022-12-18T06:26:02;-2.20;99.90
40696;DHT22;40425;51.102;17.208;2022-12-18T06:31:04;-2.20;99.90
40696;DHT22;40425;51.102;17.208;2022-12-18T06:36:11;-2.10;99.90
40696;DHT22;40425;51.102;17.208;2022-12-18T06:41:17;-2.10;99.90
40696;DHT22;40425;51.102;17.208;2022-12-18T06:46:19;-2.10;99.90
40696;DHT22;40425;51.102;17.208;2022-12-18T06:51:22;-2.00;99.90
40696;DHT22;40425;51.102;17.208;2022-12-18T06:56:23;-2.00;99.90
40696;DHT22;40425;51.102;17.208;2022-12-18T07:01:24;-1.90;99.90
40696;DHT22;40425;51.102;17.208;2022-12-18T07:06:26;-2.00;99.90
40696;DHT22;40425;51.102;17.208;2022-12-18T07:11:26;-2.00;99.90
40696;DHT22;40425;51.102;17.208;2022-12-18T07:16:27;-2.10;99.90
40696;DHT22;40425;51.102;17.208;2022-12-18T07:21:31;-2.20;99.90
40696;DHT22;40425;51.102;17.208;2022-12-18T07:26:32;-2.00;99.90
40696;DHT22;40425;51.102;17.208;2022-12-18T07:31:33;-2.10;99.90
40696;DHT22;40425;51.102;17.208;2022-12-18T07:36:34;-2.20;99.90
40696;DHT22;40425;51.102;17.208;2022-12-18T07:41:35;-2.10;99.90
40696;DHT22;40425;51.102;17.208;2022-12-18T07:46:35;-1.90;99.90
40696;DHT22;40425;51.102;17.208;2022-12-18T07:51:36;-1.80;99.90
40696;DHT22;40425;51.102;17.208;2022-12-18T07:56:37;-1.70;99.90
40696;DHT22;40425;51.102;17.208;2022-12-18T08:01:38;-1.70;99.90
40696;DHT22;40425;51.102;17.208;2022-12-18T08:06:39;-1.70;99.90
40696;DHT22;40425;51.102;17.208;2022-12-18T08:11:40;-1.70;99.90
40696;DHT22;40425;51.102;17.208;2022-12-18T08:16:41;-1.70;99.90
40696;DHT22;40425;51.102;17.208;2022-12-18T08:21:42;-1.50;99.90
40696;DHT22;40425;51.102;17.208;2022-12-18T08:26:43;-1.60;99.90
40696;DHT22;40425;51.102;17.208;2022-12-18T08:31:43;-1.60;99.90
40696;DHT22;40425;51.102;17.208;2022-12-18T08:36:44;-1.70;99.90
40696;DHT22;40425;51.102;17.208;2022-12-18T08:41:45;-1.80;99.90
40696;DHT22;40425;51.102;17.208;2022-12-18T08:47:06;-1.60;99.90
40696;DHT22;40425;51.102;17.208;2022-12-18T08:52:07;-1.40;99.90
40696;DHT22;40425;51.102;17.208;2022-12-18T08:57:07;-1.50;99.90
40696;DHT22;40425;51.102;17.208;2022-12-18T09:02:10;-1.40;99.90
40696;DHT22;40425;51.102;17.208;2022-12-18T09:07:11;-1.40;99.90
40696;DHT22;40425;51.102;17.208;2022-12-18T09:12:12;-1.30;99.90
40696;DHT22;40425;51.102;17.208;2022-12-18T09:17:13;-1.20;99.90
40696;DHT22;40425;51.102;17.208;2022-12-18T09:22:14;-1.10;99.90
40696;DHT22;40425;51.102;17.208;2022-12-18T09:27:15;-1.10;99.90
40696;DHT22;40425;51.102;17.208;2022-12-18T09:32:16;-0.90;99.90
40696;DHT22;40425;51.102;17.208;2022-12-18T09:37:19;-1.00;99.90
40696;DHT22;40425;51.102;17.208;2022-12-18T09:42:23;-1.10;99.90
40696;DHT22;40425;51.102;17.208;2022-12-18T09:47:30;-1.00;99.90
40696;DHT22;40425;51.102;17.208;2022-12-18T09:52:37;-0.80;99.90
40696;DHT22;40425;51.102;17.208;2022-12-18T09:57:46;-0.70;99.90
40696;DHT22;40425;51.102;17.208;2022-12-18T10:02:50;-0.90;99.90
